createdAt,value
2019-02-19T00:01:31.054Z,7.72
2019-02-19T00:03:59.960Z,7.37
2019-02-19T00:06:28.951Z,7.45
2019-02-19T00:08:57.766Z,7.22
2019-02-19T00:11:26.671Z,7.62
2019-02-19T00:13:55.768Z,7.00
2019-02-19T00:16:24.692Z,7.30
2019-02-19T00:18:53.790Z,7.67
2019-02-19T00:21:22.695Z,7.35
2019-02-19T00:23:51.528Z,6.95
2019-02-19T00:26:20.416Z,7.22
2019-02-19T00:28:49.445Z,6.58
2019-02-19T00:31:18.446Z,7.28
2019-02-19T00:33:47.438Z,6.75
2019-02-19T00:36:16.525Z,6.70
2019-02-19T00:38:45.511Z,6.40
2019-02-19T00:41:15.061Z,6.22
2019-02-19T00:43:44.101Z,5.92
2019-02-19T00:46:12.934Z,5.85
2019-02-19T00:48:42.854Z,6.42
2019-02-19T00:51:11.842Z,6.00
2019-02-19T00:53:40.885Z,6.12
2019-02-19T00:56:09.982Z,5.80
2019-02-19T00:58:38.993Z,5.87
2019-02-19T01:01:08.092Z,5.50
2019-02-19T01:03:37.129Z,5.83
2019-02-19T01:06:06.159Z,5.67
2019-02-19T01:08:35.194Z,5.90
2019-02-19T01:11:23.220Z,5.55
2019-02-19T01:13:52.341Z,5.70
2019-02-19T01:16:21.236Z,5.45
2019-02-19T01:18:50.266Z,5.28
2019-02-19T01:21:19.123Z,5.30
2019-02-19T01:23:48.044Z,5.15
2019-02-19T01:26:16.973Z,5.72
2019-02-19T01:28:46.014Z,5.33
2019-02-19T01:31:15.224Z,5.00
2019-02-19T01:33:44.374Z,5.03
2019-02-19T01:36:13.214Z,4.72
2019-02-19T01:38:42.256Z,4.50
2019-02-19T01:41:11.136Z,4.70
2019-02-19T01:43:39.958Z,4.78
2019-02-19T01:46:08.792Z,4.37
2019-02-19T01:48:37.908Z,4.50
2019-02-19T01:51:06.884Z,4.37
2019-02-19T01:53:35.880Z,4.53
2019-02-19T01:56:04.857Z,4.10
2019-02-19T01:58:33.836Z,4.50
2019-02-19T02:01:02.820Z,4.58
2019-02-19T02:03:31.640Z,5.42
2019-02-19T02:06:00.465Z,4.45
2019-02-19T02:08:29.516Z,4.42
2019-02-19T02:10:58.524Z,4.87
2019-02-19T02:13:27.509Z,4.37
2019-02-19T02:15:56.357Z,4.55
2019-02-19T02:18:25.271Z,4.60
2019-02-19T02:20:54.284Z,4.40
2019-02-19T02:23:23.284Z,4.37
2019-02-19T02:25:52.050Z,4.80
2019-02-19T02:28:20.878Z,4.80
2019-02-19T02:30:49.810Z,4.25
2019-02-19T02:33:18.748Z,4.47
2019-02-19T02:35:47.661Z,3.95
2019-02-19T02:38:16.650Z,4.45
2019-02-19T02:40:48.695Z,4.40
2019-02-19T02:43:17.656Z,4.15
2019-02-19T02:45:53.028Z,4.28
2019-02-19T02:48:17.278Z,4.15
2019-02-19T02:50:46.335Z,4.15
2019-02-19T02:53:15.812Z,4.30
2019-02-19T02:55:44.826Z,4.43
2019-02-19T02:58:14.224Z,4.00
2019-02-19T03:01:22.806Z,4.03
2019-02-19T03:03:51.656Z,4.10
2019-02-19T03:06:28.897Z,3.75
2019-02-19T03:08:57.894Z,3.85
2019-02-19T03:11:26.953Z,4.20
2019-02-19T03:13:55.920Z,3.77
2019-02-19T03:16:24.955Z,3.70
2019-02-19T03:18:53.999Z,3.70
2019-02-19T03:21:22.853Z,3.70
2019-02-19T03:23:51.772Z,4.08
2019-02-19T03:26:20.770Z,4.80
2019-02-19T03:28:49.613Z,4.08
2019-02-19T03:31:18.577Z,4.30
2019-02-19T03:33:47.501Z,4.00
2019-02-19T03:36:16.471Z,4.50
2019-02-19T03:38:46.587Z,4.28
2019-02-19T03:41:15.799Z,4.20
2019-02-19T03:43:45.061Z,4.22
2019-02-19T03:46:14.049Z,4.03
2019-02-19T03:48:43.144Z,4.08
2019-02-19T03:51:12.055Z,4.20
2019-02-19T03:53:40.961Z,4.37
2019-02-19T03:56:09.799Z,4.47
2019-02-19T03:58:38.704Z,4.37
2019-02-19T04:01:07.717Z,4.70
2019-02-19T04:03:36.797Z,4.55
2019-02-19T04:06:26.543Z,4.28
2019-02-19T04:08:55.370Z,3.17
2019-02-19T04:11:24.186Z,4.90
2019-02-19T04:13:53.081Z,4.83
2019-02-19T04:16:22.036Z,5.05
2019-02-19T04:18:51.052Z,4.80
2019-02-19T04:21:20.058Z,5.45
2019-02-19T04:23:49.044Z,5.22
2019-02-19T04:26:17.882Z,5.12
2019-02-19T04:28:46.796Z,5.03
2019-02-19T04:31:16.906Z,5.22
2019-02-19T04:33:45.910Z,5.65
2019-02-19T04:36:15.344Z,5.70
2019-02-19T04:38:44.261Z,6.67
2019-02-19T04:41:13.383Z,7.60
2019-02-19T04:43:42.266Z,7.15
2019-02-19T04:46:11.539Z,6.50
2019-02-19T04:48:40.484Z,6.40
2019-02-19T04:51:09.685Z,7.22
2019-02-19T04:53:38.545Z,7.33
2019-02-19T04:56:07.502Z,7.90
2019-02-19T04:58:36.647Z,7.70
2019-02-19T05:01:05.618Z,8.43
2019-02-19T05:03:34.589Z,8.40
2019-02-19T05:06:03.721Z,9.05
2019-02-19T05:08:32.536Z,8.95
2019-02-19T05:11:01.468Z,9.38
2019-02-19T05:13:30.437Z,9.63
2019-02-19T05:15:59.731Z,10.03
2019-02-19T05:18:28.758Z,10.28
2019-02-19T05:20:57.857Z,10.72
2019-02-19T05:23:26.847Z,10.03
2019-02-19T05:25:55.664Z,10.70
2019-02-19T05:28:24.571Z,10.75
2019-02-19T05:30:53.667Z,11.25
2019-02-19T05:33:22.474Z,11.30
2019-02-19T05:35:51.398Z,9.20
2019-02-19T05:38:20.239Z,8.40
2019-02-19T05:40:49.191Z,9.88
2019-02-19T05:43:18.225Z,8.18
2019-02-19T05:45:47.396Z,8.95
2019-02-19T05:48:16.351Z,8.23
2019-02-19T05:50:45.465Z,8.43
2019-02-19T05:53:14.343Z,7.42
2019-02-19T05:55:43.280Z,7.95
2019-02-19T05:58:12.166Z,7.20
2019-02-19T06:00:41.022Z,9.43
2019-02-19T06:03:09.820Z,8.50
2019-02-19T06:05:38.729Z,7.83
2019-02-19T06:08:07.536Z,8.23
2019-02-19T06:10:36.407Z,8.90
2019-02-19T06:13:05.244Z,7.45
2019-02-19T06:15:34.069Z,8.75
2019-02-19T06:18:03.041Z,7.15
2019-02-19T06:20:32.077Z,7.10
2019-02-19T06:23:01.033Z,7.60
2019-02-19T06:25:30.065Z,6.95
2019-02-19T06:27:59.127Z,8.15
2019-02-19T06:30:28.138Z,6.92
2019-02-19T06:32:57.079Z,7.65
2019-02-19T06:35:26.177Z,9.08
2019-02-19T06:37:55.012Z,9.53
2019-02-19T06:40:45.932Z,7.95
2019-02-19T06:43:14.855Z,10.85
2019-02-19T06:45:43.866Z,11.12
2019-02-19T06:48:12.734Z,10.55
2019-02-19T06:50:41.693Z,9.10
2019-02-19T06:53:10.699Z,9.00
2019-02-19T06:55:39.996Z,10.58
2019-02-19T06:58:08.920Z,9.73
2019-02-19T07:00:38.107Z,10.50
2019-02-19T07:03:31.649Z,10.13
2019-02-19T07:06:00.500Z,8.50
2019-02-19T07:08:29.323Z,8.58
2019-02-19T07:10:58.364Z,7.83
2019-02-19T07:13:27.178Z,8.70
2019-02-19T07:15:56.096Z,8.05
2019-02-19T07:18:25.091Z,8.45
2019-02-19T07:20:54.117Z,8.28
2019-02-19T07:23:23.030Z,7.90
2019-02-19T07:25:51.797Z,8.40
2019-02-19T07:28:20.830Z,8.48
2019-02-19T07:30:49.905Z,8.73
2019-02-19T07:33:18.886Z,8.73
2019-02-19T07:36:08.580Z,8.08
2019-02-19T07:38:37.691Z,8.70
2019-02-19T07:41:06.532Z,8.40
2019-02-19T07:43:35.439Z,8.00
2019-02-19T07:46:04.446Z,14.65
2019-02-19T07:48:33.424Z,10.13
2019-02-19T07:51:02.299Z,9.38
2019-02-19T07:53:31.418Z,9.58
2019-02-19T07:56:00.224Z,9.18
2019-02-19T07:58:29.565Z,9.03
2019-02-19T08:00:58.624Z,9.60
2019-02-19T08:03:27.464Z,7.87
2019-02-19T08:05:56.330Z,9.83
2019-02-19T08:08:25.161Z,9.83
2019-02-19T08:10:54.098Z,10.63
2019-02-19T08:13:22.989Z,9.93
2019-02-19T08:15:51.839Z,10.75
2019-02-19T08:18:20.671Z,10.63
2019-02-19T08:20:49.595Z,10.00
2019-02-19T08:23:18.587Z,9.33
2019-02-19T08:25:47.622Z,11.55
2019-02-19T08:28:17.073Z,11.28
2019-02-19T08:30:45.975Z,11.43
2019-02-19T08:33:14.832Z,10.98
2019-02-19T08:35:43.741Z,11.50
2019-02-19T08:38:33.204Z,12.35
2019-02-19T08:41:02.231Z,13.32
2019-02-19T08:43:31.127Z,13.22
2019-02-19T08:46:00.116Z,12.90
2019-02-19T08:48:29.127Z,12.45
2019-02-19T08:50:58.211Z,12.30
2019-02-19T08:53:27.263Z,12.93
2019-02-19T08:55:56.262Z,12.20
2019-02-19T08:58:25.287Z,14.30
2019-02-19T09:00:54.279Z,14.03
2019-02-19T09:03:23.298Z,13.05
2019-02-19T09:05:52.407Z,14.87
2019-02-19T09:08:21.271Z,13.83
2019-02-19T09:10:50.110Z,11.97
2019-02-19T09:13:19.025Z,12.88
2019-02-19T09:15:48.027Z,13.70
2019-02-19T09:18:17.142Z,15.08
2019-02-19T09:20:46.060Z,15.25
2019-02-19T09:23:14.989Z,12.90
2019-02-19T09:25:43.907Z,14.43
2019-02-19T09:28:12.858Z,13.20
2019-02-19T09:30:41.807Z,14.33
2019-02-19T09:33:12.254Z,13.55
2019-02-19T09:38:09.528Z,13.25
2019-02-19T09:40:38.624Z,13.18
2019-02-19T09:43:07.538Z,12.70
2019-02-19T09:45:36.447Z,12.68
2019-02-19T09:48:05.463Z,12.30
2019-02-19T09:50:34.459Z,13.50
2019-02-19T09:53:03.484Z,14.03
2019-02-19T09:55:32.532Z,43.00
2019-02-19T09:58:01.503Z,41.30
2019-02-19T10:00:30.604Z,40.00
2019-02-19T10:02:59.642Z,39.58
2019-02-19T10:05:28.615Z,34.75
2019-02-19T10:07:57.622Z,39.20
2019-02-19T10:10:26.677Z,38.50
2019-02-19T10:12:55.647Z,38.63
2019-02-19T10:15:24.736Z,31.80
2019-02-19T10:17:53.626Z,33.28
2019-02-19T10:20:22.469Z,34.27
2019-02-19T10:22:51.336Z,33.65
2019-02-19T10:25:20.239Z,33.05
2019-02-19T10:27:49.253Z,28.10
2019-02-19T10:30:18.504Z,28.60
2019-02-19T10:32:47.342Z,26.45
2019-02-19T10:35:16.269Z,27.70
2019-02-19T10:37:45.213Z,26.10
2019-02-19T10:40:15.204Z,25.82
2019-02-19T10:42:44.123Z,24.47
2019-02-19T10:45:15.578Z,23.18
2019-02-19T10:47:44.713Z,21.15
2019-02-19T10:50:34.346Z,21.77
2019-02-19T10:53:03.299Z,20.70
2019-02-19T10:55:32.182Z,21.25
2019-02-19T10:58:01.109Z,19.95
2019-02-19T11:00:30.187Z,19.00
2019-02-19T11:02:59.435Z,18.75
2019-02-19T11:05:28.359Z,17.07
2019-02-19T11:07:57.534Z,18.85
2019-02-19T11:10:26.351Z,17.55
2019-02-19T11:12:55.419Z,16.23
2019-02-19T11:15:24.267Z,15.70
2019-02-19T11:17:53.523Z,14.78
2019-02-19T11:20:22.561Z,13.90
2019-02-19T11:22:51.570Z,14.33
2019-02-19T11:25:20.519Z,13.62
2019-02-19T11:27:49.522Z,14.78
2019-02-19T11:30:20.334Z,12.33
2019-02-19T11:32:49.545Z,12.30
2019-02-19T11:35:18.494Z,11.33
2019-02-19T11:37:47.289Z,9.90
2019-02-19T11:40:16.310Z,10.88
2019-02-19T11:42:45.173Z,10.03
2019-02-19T11:45:14.651Z,10.10
2019-02-19T11:47:43.505Z,8.97
2019-02-19T11:50:12.705Z,9.80
2019-02-19T11:52:41.722Z,9.25
2019-02-19T11:55:11.968Z,9.63
2019-02-19T11:57:40.715Z,9.35
2019-02-19T12:00:12.263Z,7.30
2019-02-19T12:02:41.173Z,7.20
2019-02-19T12:05:10.193Z,7.87
2019-02-19T12:07:39.188Z,9.08
2019-02-19T12:10:08.273Z,7.40
2019-02-19T12:12:37.148Z,7.45
2019-02-19T12:15:06.370Z,7.50
2019-02-19T12:17:35.315Z,7.83
2019-02-19T12:20:04.337Z,7.83
2019-02-19T12:22:33.287Z,6.33
2019-02-19T12:25:02.228Z,7.50
2019-02-19T12:27:31.074Z,6.22
2019-02-19T12:29:59.887Z,6.17
2019-02-19T12:32:28.855Z,6.80
2019-02-19T12:34:57.913Z,7.37
2019-02-19T12:37:26.825Z,8.38
2019-02-19T12:39:55.840Z,7.70
2019-02-19T12:42:24.863Z,24.85
2019-02-19T12:44:53.823Z,68.12
2019-02-19T12:47:22.617Z,48.52
2019-02-19T12:49:51.642Z,40.73
2019-02-19T12:52:20.843Z,31.33
2019-02-19T12:54:49.657Z,19.48
2019-02-19T12:57:18.831Z,22.17
2019-02-19T12:59:56.248Z,21.57
2019-02-19T13:02:19.700Z,22.37
2019-02-19T13:04:48.753Z,28.12
2019-02-19T13:07:17.693Z,25.15
2019-02-19T13:09:47.045Z,26.07
2019-02-19T13:12:15.919Z,25.30
2019-02-19T13:14:44.733Z,22.37
2019-02-19T13:17:13.639Z,21.27
2019-02-19T13:19:42.757Z,20.02
2019-02-19T13:22:12.058Z,19.17
2019-02-19T13:24:40.983Z,17.55
2019-02-19T13:27:09.972Z,18.20
2019-02-19T13:29:38.899Z,16.65
2019-02-19T13:32:08.034Z,16.70
2019-02-19T13:34:37.167Z,15.63
2019-02-19T13:37:06.185Z,13.10
2019-02-19T13:39:35.154Z,13.93
2019-02-19T13:42:04.051Z,12.40
2019-02-19T13:44:32.880Z,11.50
2019-02-19T13:47:02.057Z,10.50
2019-02-19T13:49:31.133Z,11.03
2019-02-19T13:52:06.176Z,11.85
2019-02-19T13:54:39.094Z,10.88
2019-02-19T13:57:08.029Z,10.35
2019-02-19T13:59:37.029Z,9.98
2019-02-19T14:02:06.118Z,10.08
2019-02-19T14:04:34.947Z,9.63
2019-02-19T14:07:03.962Z,9.23
2019-02-19T14:09:32.822Z,7.87
2019-02-19T14:12:01.689Z,9.20
2019-02-19T14:14:55.367Z,8.10
2019-02-19T14:17:24.650Z,7.33
2019-02-19T14:19:58.183Z,6.80
2019-02-19T14:22:48.789Z,6.95
2019-02-19T14:25:48.610Z,6.80
2019-02-19T14:28:35.138Z,4.35
2019-02-19T14:31:23.075Z,7.00
2019-02-19T14:34:15.486Z,7.33
2019-02-19T14:37:17.924Z,7.80
2019-02-19T14:40:10.201Z,7.55
2019-02-19T14:42:52.938Z,7.47
2019-02-19T14:45:47.182Z,8.08
2019-02-19T14:48:27.468Z,8.08
2019-02-19T14:51:22.465Z,7.55
2019-02-19T14:54:09.464Z,7.78
2019-02-19T14:56:53.750Z,7.83
2019-02-19T14:59:44.935Z,8.75
2019-02-19T15:02:35.599Z,9.00
2019-02-19T15:05:35.678Z,8.63
2019-02-19T15:08:22.118Z,8.73
2019-02-19T15:11:08.807Z,9.78
2019-02-19T15:13:59.577Z,9.53
2019-02-19T15:16:36.585Z,8.55
2019-02-19T15:19:25.601Z,9.13
2019-02-19T15:22:05.303Z,9.00
2019-02-19T15:24:51.735Z,9.35
2019-02-19T15:27:57.678Z,7.15
2019-02-19T15:31:03.802Z,7.53
2019-02-19T15:33:50.249Z,7.92
2019-02-19T15:36:37.010Z,7.83
2019-02-19T15:39:25.533Z,8.73
2019-02-19T15:42:12.160Z,8.43
2019-02-19T15:45:20.716Z,7.62
2019-02-19T15:47:59.497Z,7.72
2019-02-19T15:50:46.150Z,6.85
2019-02-19T15:53:45.793Z,7.50
2019-02-19T15:56:36.588Z,7.05
2019-02-19T15:59:27.197Z,6.22
2019-02-19T16:02:15.530Z,6.50
2019-02-19T16:05:10.943Z,7.08
2019-02-19T16:08:12.824Z,6.10
2019-02-19T16:11:18.238Z,6.33
2019-02-19T16:14:04.914Z,5.60
2019-02-19T16:16:45.202Z,6.08
2019-02-19T16:19:44.572Z,6.12
2019-02-19T16:22:20.443Z,5.85
2019-02-19T16:25:07.176Z,5.03
2019-02-19T16:28:04.372Z,4.67
2019-02-19T16:31:04.501Z,5.20
2019-02-19T16:33:55.212Z,4.95
2019-02-19T16:36:47.816Z,6.00
2019-02-19T16:39:34.484Z,5.22
2019-02-19T16:42:24.314Z,5.35
2019-02-19T16:45:18.423Z,5.28
2019-02-19T16:48:15.778Z,4.85
2019-02-19T16:51:06.828Z,5.50
2019-02-19T16:53:54.891Z,4.72
2019-02-19T16:56:42.811Z,3.95
2019-02-19T16:59:20.948Z,5.08
2019-02-19T17:02:08.095Z,4.53
2019-02-19T17:04:54.448Z,4.30
2019-02-19T17:07:51.001Z,4.30
2019-02-19T17:10:32.194Z,4.20
2019-02-19T17:13:20.069Z,4.78
2019-02-19T17:16:17.097Z,4.33
2019-02-19T17:18:53.932Z,4.15
2019-02-19T17:21:33.121Z,4.72
2019-02-19T17:24:17.698Z,4.25
2019-02-19T17:26:53.751Z,3.45
2019-02-19T17:29:44.497Z,4.95
2019-02-19T17:32:36.983Z,3.77
2019-02-19T17:35:34.268Z,4.92
2019-02-19T17:38:14.581Z,4.03
2019-02-19T17:41:06.249Z,3.77
2019-02-19T17:43:46.137Z,4.10
2019-02-19T17:46:33.976Z,4.53
2019-02-19T17:49:21.852Z,4.58
2019-02-19T17:52:02.209Z,4.33
2019-02-19T17:54:48.635Z,4.70
2019-02-19T17:57:33.735Z,4.17
2019-02-19T18:00:12.622Z,4.30
2019-02-19T18:02:59.044Z,3.72
2019-02-19T18:05:34.872Z,4.65
2019-02-19T18:08:21.261Z,3.72
2019-02-19T18:11:01.225Z,3.75
2019-02-19T18:13:43.852Z,4.05
2019-02-19T18:16:29.942Z,4.30
2019-02-19T18:18:58.867Z,3.77
2019-02-19T18:21:27.909Z,3.83
2019-02-19T18:23:57.013Z,3.67
2019-02-19T18:26:25.913Z,4.15
2019-02-19T18:28:54.901Z,4.30
2019-02-19T18:31:23.952Z,4.40
2019-02-19T18:33:52.781Z,4.10
2019-02-19T18:36:21.985Z,3.92
2019-02-19T18:38:51.058Z,4.12
2019-02-19T18:41:23.159Z,3.77
2019-02-19T18:43:52.349Z,3.77
2019-02-19T18:46:21.553Z,3.45
2019-02-19T18:48:50.730Z,3.62
2019-02-19T18:51:19.689Z,4.00
2019-02-19T18:53:48.505Z,3.65
2019-02-19T18:56:17.461Z,3.42
2019-02-19T18:58:46.429Z,3.80
2019-02-19T19:01:15.448Z,3.70
2019-02-19T19:03:44.455Z,4.03
2019-02-19T19:06:13.681Z,4.20
2019-02-19T19:08:42.666Z,3.22
2019-02-19T19:11:11.713Z,3.70
2019-02-19T19:13:40.699Z,3.55
2019-02-19T19:16:09.765Z,3.20
2019-02-19T19:18:38.759Z,3.37
2019-02-19T19:21:08.366Z,4.00
2019-02-19T19:23:37.345Z,2.85
2019-02-19T19:26:06.310Z,3.92
2019-02-19T19:28:35.256Z,3.75
2019-02-19T19:31:04.265Z,3.85
2019-02-19T19:33:33.377Z,3.67
2019-02-19T19:36:02.533Z,3.80
2019-02-19T19:38:31.340Z,4.17
2019-02-19T19:41:00.466Z,4.05
2019-02-19T19:43:31.121Z,3.90
2019-02-19T19:45:59.951Z,3.27
2019-02-19T19:48:28.815Z,3.50
2019-02-19T19:50:57.881Z,3.40
2019-02-19T19:53:26.835Z,3.10
2019-02-19T19:55:55.979Z,3.30
2019-02-19T19:58:43.848Z,3.17
2019-02-19T20:01:12.734Z,2.70
2019-02-19T20:03:41.729Z,3.72
2019-02-19T20:06:10.656Z,3.40
2019-02-19T20:08:39.511Z,3.50
2019-02-19T20:11:08.489Z,3.12
2019-02-19T20:13:37.430Z,3.75
2019-02-19T20:16:06.439Z,3.20
2019-02-19T20:18:39.184Z,2.90
2019-02-19T20:21:06.117Z,3.20
2019-02-19T20:23:35.123Z,3.08
2019-02-19T20:26:03.978Z,3.30
2019-02-19T20:28:32.875Z,3.05
2019-02-19T20:31:01.882Z,2.95
2019-02-19T20:33:31.018Z,3.02
2019-02-19T20:36:00.130Z,3.00
2019-02-19T20:38:29.104Z,2.60
2019-02-19T20:40:58.145Z,2.90
2019-02-19T20:43:27.179Z,3.20
2019-02-19T20:45:56.294Z,3.02
2019-02-19T20:48:25.177Z,3.20
2019-02-19T20:50:54.141Z,2.83
2019-02-19T20:53:23.171Z,2.83
2019-02-19T20:55:52.279Z,2.70
2019-02-19T20:58:21.324Z,2.67
2019-02-19T21:00:50.123Z,2.92
2019-02-19T21:03:19.247Z,3.20
2019-02-19T21:05:49.162Z,2.95
2019-02-19T21:08:18.516Z,2.70
2019-02-19T21:10:47.534Z,2.70
2019-02-19T21:13:16.359Z,2.50
2019-02-19T21:15:45.349Z,2.80
2019-02-19T21:18:14.430Z,2.58
2019-02-19T21:20:43.370Z,2.30
2019-02-19T21:23:12.349Z,2.67
2019-02-19T21:25:41.340Z,2.52
2019-02-19T21:28:10.350Z,2.17
2019-02-19T21:30:39.512Z,2.47
2019-02-19T21:33:08.341Z,2.35
2019-02-19T21:35:37.126Z,2.37
2019-02-19T21:38:06.115Z,2.37
2019-02-19T21:40:35.049Z,2.67
2019-02-19T21:43:04.239Z,2.30
2019-02-19T21:45:33.503Z,2.62
2019-02-19T21:48:02.491Z,2.45
2019-02-19T21:50:31.421Z,2.00
2019-02-19T21:53:00.588Z,2.75
2019-02-19T21:55:29.520Z,2.33
2019-02-19T21:57:59.749Z,2.30
2019-02-19T22:00:28.621Z,2.33
2019-02-19T22:02:57.553Z,2.50
2019-02-19T22:05:26.593Z,2.65
2019-02-19T22:07:55.579Z,2.58
2019-02-19T22:10:24.634Z,2.20
2019-02-19T22:12:53.505Z,2.37
2019-02-19T22:15:22.338Z,2.37
2019-02-19T22:17:51.353Z,2.35
2019-02-19T22:20:42.757Z,2.42
2019-02-19T22:23:11.770Z,2.27
2019-02-19T22:25:40.597Z,2.42
2019-02-19T22:28:09.608Z,2.70
2019-02-19T22:30:38.725Z,2.52
2019-02-19T22:33:07.724Z,2.20
2019-02-19T22:35:36.738Z,2.10
2019-02-19T22:38:05.651Z,2.47
2019-02-19T22:40:34.468Z,2.37
2019-02-19T22:43:03.641Z,2.30
2019-02-19T22:45:32.480Z,2.30
2019-02-19T22:48:01.574Z,2.65
2019-02-19T22:50:30.780Z,2.15
2019-02-19T22:52:59.773Z,2.20
2019-02-19T22:55:45.877Z,2.67
2019-02-19T22:58:14.890Z,2.60
2019-02-19T23:01:14.948Z,2.40
2019-02-19T23:03:43.768Z,2.60
2019-02-19T23:06:12.842Z,2.25
2019-02-19T23:08:41.938Z,2.20
2019-02-19T23:11:10.955Z,2.47
2019-02-19T23:13:39.948Z,2.35
2019-02-19T23:16:09.045Z,2.45
2019-02-19T23:18:37.991Z,2.30
2019-02-19T23:21:27.426Z,2.42
2019-02-19T23:23:56.446Z,2.20
2019-02-19T23:26:25.367Z,2.12
2019-02-19T23:29:14.916Z,2.27
2019-02-19T23:31:43.726Z,2.23
2019-02-19T23:34:12.728Z,2.62
2019-02-19T23:36:51.040Z,2.17
2019-02-19T23:39:19.977Z,2.35
2019-02-19T23:41:48.759Z,2.27
2019-02-19T23:44:17.855Z,1.85
2019-02-19T23:46:46.868Z,2.42
2019-02-19T23:49:15.865Z,2.47
2019-02-19T23:51:44.702Z,2.30
2019-02-19T23:54:13.554Z,2.22
2019-02-19T23:56:42.401Z,2.40
2019-02-19T23:59:11.226Z,2.30
